sensor_id;sensor_type;location;lat;lon;timestamp;temperature;humidity
41481;DHT22;27217;51.220;5.308;2022-11-20T00:01:44;3.80;99.90
41481;DHT22;27217;51.220;5.308;2022-11-20T00:04:10;3.80;99.90
41481;DHT22;27217;51.220;5.308;2022-11-20T00:06:37;3.80;99.90
41481;DHT22;27217;51.220;5.308;2022-11-20T00:09:03;3.60;99.90
41481;DHT22;27217;51.220;5.308;2022-11-20T00:11:31;3.50;99.90
41481;DHT22;27217;51.220;5.308;2022-11-20T00:14:00;3.30;99.90
41481;DHT22;27217;51.220;5.308;2022-11-20T00:16:27;3.40;99.90
41481;DHT22;27217;51.220;5.308;2022-11-20T00:18:54;3.40;99.90
41481;DHT22;27217;51.220;5.308;2022-11-20T00:21:22;3.10;99.90
41481;DHT22;27217;51.220;5.308;2022-11-20T00:23:50;3.30;99.90
41481;DHT22;27217;51.220;5.308;2022-11-20T00:26:18;3.30;99.90
41481;DHT22;27217;51.220;5.308;2022-11-20T00:28:49;3.30;99.90
41481;DHT22;27217;51.220;5.308;2022-11-20T00:31:16;3.30;99.90
41481;DHT22;27217;51.220;5.308;2022-11-20T00:33:43;3.30;99.90
41481;DHT22;27217;51.220;5.308;2022-11-20T00:36:12;3.40;99.90
41481;DHT22;27217;51.220;5.308;2022-11-20T00:38:38;3.50;99.90
41481;DHT22;27217;51.220;5.308;2022-11-20T00:41:06;3.30;99.90
41481;DHT22;27217;51.220;5.308;2022-11-20T00:43:33;3.40;99.90
41481;DHT22;27217;51.220;5.308;2022-11-20T00:46:04;3.50;99.90
41481;DHT22;27217;51.220;5.308;2022-11-20T00:48:30;3.40;99.90
41481;DHT22;27217;51.220;5.308;2022-11-20T00:50:57;3.30;99.90
41481;DHT22;27217;51.220;5.308;2022-11-20T00:53:23;3.20;99.90
41481;DHT22;27217;51.220;5.308;2022-11-20T00:56:04;3.10;99.90
41481;DHT22;27217;51.220;5.308;2022-11-20T00:58:33;3.10;99.90
41481;DHT22;27217;51.220;5.308;2022-11-20T01:01:05;3.20;99.90
41481;DHT22;27217;51.220;5.308;2022-11-20T01:03:39;3.10;99.90
41481;DHT22;27217;51.220;5.308;2022-11-20T01:06:07;3.10;99.90
41481;DHT22;27217;51.220;5.308;2022-11-20T01:08:35;3.20;99.90
41481;DHT22;27217;51.220;5.308;2022-11-20T01:11:09;3.40;99.90
41481;DHT22;27217;51.220;5.308;2022-11-20T01:13:36;3.60;99.90
41481;DHT22;27217;51.220;5.308;2022-11-20T01:16:09;3.60;99.90
41481;DHT22;27217;51.220;5.308;2022-11-20T01:18:36;3.60;99.90
41481;DHT22;27217;51.220;5.308;2022-11-20T01:21:08;3.60;99.90
41481;DHT22;27217;51.220;5.308;2022-11-20T01:23:36;3.70;99.90
41481;DHT22;27217;51.220;5.308;2022-11-20T01:26:04;3.60;99.90
41481;DHT22;27217;51.220;5.308;2022-11-20T01:28:30;3.50;99.90
41481;DHT22;27217;51.220;5.308;2022-11-20T01:30:56;3.50;99.90
41481;DHT22;27217;51.220;5.308;2022-11-20T01:33:22;3.60;99.90
41481;DHT22;27217;51.220;5.308;2022-11-20T01:35:48;3.70;99.90
41481;DHT22;27217;51.220;5.308;2022-11-20T01:38:15;3.70;99.90
41481;DHT22;27217;51.220;5.308;2022-11-20T01:40:41;3.80;99.90
41481;DHT22;27217;51.220;5.308;2022-11-20T01:43:25;3.90;99.90
41481;DHT22;27217;51.220;5.308;2022-11-20T01:46:14;4.20;99.90
41481;DHT22;27217;51.220;5.308;2022-11-20T01:51:48;4.20;99.90
41481;DHT22;27217;51.220;5.308;2022-11-20T01:54:23;4.00;99.90
41481;DHT22;27217;51.220;5.308;2022-11-20T01:56:53;3.60;99.90
41481;DHT22;27217;51.220;5.308;2022-11-20T01:59:23;3.50;99.90
41481;DHT22;27217;51.220;5.308;2022-11-20T02:01:49;3.50;99.90
41481;DHT22;27217;51.220;5.308;2022-11-20T02:04:15;3.60;99.90
41481;DHT22;27217;51.220;5.308;2022-11-20T02:06:51;3.90;99.90
41481;DHT22;27217;51.220;5.308;2022-11-20T02:09:19;4.00;99.90
41481;DHT22;27217;51.220;5.308;2022-11-20T02:11:45;3.80;99.90
41481;DHT22;27217;51.220;5.308;2022-11-20T02:14:10;3.70;99.90
41481;DHT22;27217;51.220;5.308;2022-11-20T02:16:45;3.80;99.90
41481;DHT22;27217;51.220;5.308;2022-11-20T02:19:23;3.90;99.90
41481;DHT22;27217;51.220;5.308;2022-11-20T02:22:22;3.70;99.90
41481;DHT22;27217;51.220;5.308;2022-11-20T02:24:51;3.90;99.90
41481;DHT22;27217;51.220;5.308;2022-11-20T02:27:18;3.60;99.90
41481;DHT22;27217;51.220;5.308;2022-11-20T02:29:45;3.60;99.90
41481;DHT22;27217;51.220;5.308;2022-11-20T02:32:30;3.80;99.90
41481;DHT22;27217;51.220;5.308;2022-11-20T02:34:57;3.80;99.90
41481;DHT22;27217;51.220;5.308;2022-11-20T02:37:28;3.70;99.90
41481;DHT22;27217;51.220;5.308;2022-11-20T02:39:56;3.60;99.90
41481;DHT22;27217;51.220;5.308;2022-11-20T02:42:22;3.60;99.90
41481;DHT22;27217;51.220;5.308;2022-11-20T02:44:47;3.60;99.90
41481;DHT22;27217;51.220;5.308;2022-11-20T02:47:13;3.60;99.90
41481;DHT22;27217;51.220;5.308;2022-11-20T02:49:39;3.70;99.90
41481;DHT22;27217;51.220;5.308;2022-11-20T02:52:04;3.60;99.90
41481;DHT22;27217;51.220;5.308;2022-11-20T02:54:30;3.50;99.90
41481;DHT22;27217;51.220;5.308;2022-11-20T02:56:56;3.70;99.90
41481;DHT22;27217;51.220;5.308;2022-11-20T02:59:22;3.70;99.90
41481;DHT22;27217;51.220;5.308;2022-11-20T03:01:48;3.60;99.90
41481;DHT22;27217;51.220;5.308;2022-11-20T03:04:14;3.90;99.90
41481;DHT22;27217;51.220;5.308;2022-11-20T03:06:39;3.70;99.90
41481;DHT22;27217;51.220;5.308;2022-11-20T03:09:05;3.80;99.90
41481;DHT22;27217;51.220;5.308;2022-11-20T03:11:31;3.80;99.90
41481;DHT22;27217;51.220;5.308;2022-11-20T03:13:56;4.00;99.90
41481;DHT22;27217;51.220;5.308;2022-11-20T03:16:23;4.00;99.90
41481;DHT22;27217;51.220;5.308;2022-11-20T03:18:49;4.00;99.90
41481;DHT22;27217;51.220;5.308;2022-11-20T03:21:17;4.00;99.90
41481;DHT22;27217;51.220;5.308;2022-11-20T03:23:43;4.00;99.90
41481;DHT22;27217;51.220;5.308;2022-11-20T03:26:21;4.00;99.90
41481;DHT22;27217;51.220;5.308;2022-11-20T03:28:54;4.10;99.90
41481;DHT22;27217;51.220;5.308;2022-11-20T03:31:23;4.00;99.90
41481;DHT22;27217;51.220;5.308;2022-11-20T03:33:49;4.00;99.90
41481;DHT22;27217;51.220;5.308;2022-11-20T03:36:17;3.90;99.90
41481;DHT22;27217;51.220;5.308;2022-11-20T03:38:43;4.10;99.90
41481;DHT22;27217;51.220;5.308;2022-11-20T03:41:11;4.10;99.90
41481;DHT22;27217;51.220;5.308;2022-11-20T03:43:38;4.10;99.90
41481;DHT22;27217;51.220;5.308;2022-11-20T03:46:04;4.00;99.90
41481;DHT22;27217;51.220;5.308;2022-11-20T03:48:30;4.10;99.90
41481;DHT22;27217;51.220;5.308;2022-11-20T03:51:14;4.10;99.90
41481;DHT22;27217;51.220;5.308;2022-11-20T03:53:42;4.10;99.90
41481;DHT22;27217;51.220;5.308;2022-11-20T03:56:09;4.20;99.90
41481;DHT22;27217;51.220;5.308;2022-11-20T03:58:37;4.10;99.90
41481;DHT22;27217;51.220;5.308;2022-11-20T04:01:22;4.20;99.90
41481;DHT22;27217;51.220;5.308;2022-11-20T04:03:49;4.10;99.90
41481;DHT22;27217;51.220;5.308;2022-11-20T04:06:20;4.20;99.90
41481;DHT22;27217;51.220;5.308;2022-11-20T04:08:47;4.10;99.90
41481;DHT22;27217;51.220;5.308;2022-11-20T04:11:15;4.20;99.90
41481;DHT22;27217;51.220;5.308;2022-11-20T04:13:42;4.10;99.90
41481;DHT22;27217;51.220;5.308;2022-11-20T04:16:11;4.20;99.90
41481;DHT22;27217;51.220;5.308;2022-11-20T04:18:37;4.20;99.90
41481;DHT22;27217;51.220;5.308;2022-11-20T04:21:04;4.20;99.90
41481;DHT22;27217;51.220;5.308;2022-11-20T04:23:30;4.20;99.90
41481;DHT22;27217;51.220;5.308;2022-11-20T04:26:08;4.10;99.90
41481;DHT22;27217;51.220;5.308;2022-11-20T04:28:34;4.10;99.90
41481;DHT22;27217;51.220;5.308;2022-11-20T04:33:29;3.70;99.90
41481;DHT22;27217;51.220;5.308;2022-11-20T04:36:21;3.80;99.90
41481;DHT22;27217;51.220;5.308;2022-11-20T04:38:46;4.00;99.90
41481;DHT22;27217;51.220;5.308;2022-11-20T04:41:18;4.30;99.90
41481;DHT22;27217;51.220;5.308;2022-11-20T04:43:49;4.30;99.90
41481;DHT22;27217;51.220;5.308;2022-11-20T04:46:16;4.40;99.90
41481;DHT22;27217;51.220;5.308;2022-11-20T04:48:42;4.40;99.90
41481;DHT22;27217;51.220;5.308;2022-11-20T04:51:08;4.30;99.90
41481;DHT22;27217;51.220;5.308;2022-11-20T04:53:34;4.30;99.90
41481;DHT22;27217;51.220;5.308;2022-11-20T04:56:05;4.30;99.90
41481;DHT22;27217;51.220;5.308;2022-11-20T04:58:32;4.40;99.90
41481;DHT22;27217;51.220;5.308;2022-11-20T05:01:14;4.20;99.90
41481;DHT22;27217;51.220;5.308;2022-11-20T05:03:42;4.10;99.90
41481;DHT22;27217;51.220;5.308;2022-11-20T05:06:09;4.00;99.90
41481;DHT22;27217;51.220;5.308;2022-11-20T05:08:35;4.00;99.90
41481;DHT22;27217;51.220;5.308;2022-11-20T05:11:07;4.30;99.90
41481;DHT22;27217;51.220;5.308;2022-11-20T05:13:33;4.10;99.90
41481;DHT22;27217;51.220;5.308;2022-11-20T05:16:13;4.40;99.90
41481;DHT22;27217;51.220;5.308;2022-11-20T05:18:40;4.30;99.90
41481;DHT22;27217;51.220;5.308;2022-11-20T05:21:06;4.30;99.90
41481;DHT22;27217;51.220;5.308;2022-11-20T05:23:33;4.40;99.90
41481;DHT22;27217;51.220;5.308;2022-11-20T05:25:59;4.20;99.90
41481;DHT22;27217;51.220;5.308;2022-11-20T05:28:28;3.70;99.90
41481;DHT22;27217;51.220;5.308;2022-11-20T05:30:54;3.80;99.90
41481;DHT22;27217;51.220;5.308;2022-11-20T05:33:20;4.10;99.90
41481;DHT22;27217;51.220;5.308;2022-11-20T05:35:46;4.10;99.90
41481;DHT22;27217;51.220;5.308;2022-11-20T05:38:13;3.90;99.90
41481;DHT22;27217;51.220;5.308;2022-11-20T05:40:39;3.90;99.90
41481;DHT22;27217;51.220;5.308;2022-11-20T05:43:05;3.90;99.90
41481;DHT22;27217;51.220;5.308;2022-11-20T05:45:31;4.00;99.90
41481;DHT22;27217;51.220;5.308;2022-11-20T05:48:00;4.20;99.90
41481;DHT22;27217;51.220;5.308;2022-11-20T05:50:27;4.10;99.90
41481;DHT22;27217;51.220;5.308;2022-11-20T05:52:58;4.00;99.90
41481;DHT22;27217;51.220;5.308;2022-11-20T05:55:24;3.90;99.90
41481;DHT22;27217;51.220;5.308;2022-11-20T05:57:54;3.90;99.90
41481;DHT22;27217;51.220;5.308;2022-11-20T06:00:20;3.80;99.90
41481;DHT22;27217;51.220;5.308;2022-11-20T06:02:46;4.10;99.90
41481;DHT22;27217;51.220;5.308;2022-11-20T06:05:12;4.20;99.90
41481;DHT22;27217;51.220;5.308;2022-11-20T06:07:38;4.00;99.90
41481;DHT22;27217;51.220;5.308;2022-11-20T06:10:04;4.60;99.90
41481;DHT22;27217;51.220;5.308;2022-11-20T06:12:32;4.20;99.90
41481;DHT22;27217;51.220;5.308;2022-11-20T06:14:58;4.00;99.90
41481;DHT22;27217;51.220;5.308;2022-11-20T06:17:24;3.90;99.90
41481;DHT22;27217;51.220;5.308;2022-11-20T06:19:50;4.10;99.90
41481;DHT22;27217;51.220;5.308;2022-11-20T06:22:16;4.00;99.90
41481;DHT22;27217;51.220;5.308;2022-11-20T06:24:42;4.00;99.90
41481;DHT22;27217;51.220;5.308;2022-11-20T06:27:08;4.10;99.90
41481;DHT22;27217;51.220;5.308;2022-11-20T06:29:34;4.00;99.90
41481;DHT22;27217;51.220;5.308;2022-11-20T06:32:00;4.10;99.90
41481;DHT22;27217;51.220;5.308;2022-11-20T06:34:26;3.90;99.90
41481;DHT22;27217;51.220;5.308;2022-11-20T06:36:52;4.00;99.90
41481;DHT22;27217;51.220;5.308;2022-11-20T06:39:18;3.70;99.90
41481;DHT22;27217;51.220;5.308;2022-11-20T06:41:44;3.90;99.90
41481;DHT22;27217;51.220;5.308;2022-11-20T06:44:10;4.00;99.90
41481;DHT22;27217;51.220;5.308;2022-11-20T06:46:35;4.00;99.90
41481;DHT22;27217;51.220;5.308;2022-11-20T06:49:01;3.90;99.90
41481;DHT22;27217;51.220;5.308;2022-11-20T06:51:27;3.70;99.90
41481;DHT22;27217;51.220;5.308;2022-11-20T06:53:53;3.60;99.90
41481;DHT22;27217;51.220;5.308;2022-11-20T06:56:19;3.50;99.90
41481;DHT22;27217;51.220;5.308;2022-11-20T06:58:45;3.90;99.90
41481;DHT22;27217;51.220;5.308;2022-11-20T07:01:13;3.70;99.90
41481;DHT22;27217;51.220;5.308;2022-11-20T07:03:39;3.50;99.90
41481;DHT22;27217;51.220;5.308;2022-11-20T07:06:06;3.50;99.90
41481;DHT22;27217;51.220;5.308;2022-11-20T07:08:32;3.70;99.90
41481;DHT22;27217;51.220;5.308;2022-11-20T07:11:00;4.00;99.90
41481;DHT22;27217;51.220;5.308;2022-11-20T07:13:27;4.00;99.90
41481;DHT22;27217;51.220;5.308;2022-11-20T07:15:53;3.90;99.90
41481;DHT22;27217;51.220;5.308;2022-11-20T07:18:19;3.90;99.90
41481;DHT22;27217;51.220;5.308;2022-11-20T07:20:45;4.00;99.90
41481;DHT22;27217;51.220;5.308;2022-11-20T07:23:10;3.70;99.90
41481;DHT22;27217;51.220;5.308;2022-11-20T07:25:36;3.60;99.90
41481;DHT22;27217;51.220;5.308;2022-11-20T07:28:02;3.80;99.90
41481;DHT22;27217;51.220;5.308;2022-11-20T07:30:30;3.90;99.90
41481;DHT22;27217;51.220;5.308;2022-11-20T07:32:56;4.10;99.90
41481;DHT22;27217;51.220;5.308;2022-11-20T07:35:25;3.90;99.90
41481;DHT22;27217;51.220;5.308;2022-11-20T07:37:51;3.70;99.90
41481;DHT22;27217;51.220;5.308;2022-11-20T07:40:18;4.00;99.90
41481;DHT22;27217;51.220;5.308;2022-11-20T07:42:51;3.80;99.90
41481;DHT22;27217;51.220;5.308;2022-11-20T07:45:19;4.00;99.90
41481;DHT22;27217;51.220;5.308;2022-11-20T07:47:45;4.20;99.90
41481;DHT22;27217;51.220;5.308;2022-11-20T07:50:12;4.10;99.90
41481;DHT22;27217;51.220;5.308;2022-11-20T07:52:38;4.00;99.90
41481;DHT22;27217;51.220;5.308;2022-11-20T07:55:05;4.10;99.90
41481;DHT22;27217;51.220;5.308;2022-11-20T07:57:30;3.80;99.90
41481;DHT22;27217;51.220;5.308;2022-11-20T07:59:57;3.90;99.90
41481;DHT22;27217;51.220;5.308;2022-11-20T08:02:22;3.90;99.90
41481;DHT22;27217;51.220;5.308;2022-11-20T08:04:48;4.10;99.90
41481;DHT22;27217;51.220;5.308;2022-11-20T08:07:14;4.20;99.90
41481;DHT22;27217;51.220;5.308;2022-11-20T08:09:40;4.50;99.90
41481;DHT22;27217;51.220;5.308;2022-11-20T08:12:06;4.30;99.90
41481;DHT22;27217;51.220;5.308;2022-11-20T08:14:50;4.40;99.90
41481;DHT22;27217;51.220;5.308;2022-11-20T08:17:16;4.50;99.90
41481;DHT22;27217;51.220;5.308;2022-11-20T08:19:42;4.30;99.90
41481;DHT22;27217;51.220;5.308;2022-11-20T08:22:07;4.10;99.90
41481;DHT22;27217;51.220;5.308;2022-11-20T08:24:33;4.20;99.90
41481;DHT22;27217;51.220;5.308;2022-11-20T08:26:59;4.20;99.90
41481;DHT22;27217;51.220;5.308;2022-11-20T08:29:31;4.20;99.90
41481;DHT22;27217;51.220;5.308;2022-11-20T08:31:57;4.20;99.90
41481;DHT22;27217;51.220;5.308;2022-11-20T08:34:23;4.40;99.90
41481;DHT22;27217;51.220;5.308;2022-11-20T08:36:48;4.50;99.90
41481;DHT22;27217;51.220;5.308;2022-11-20T08:39:14;4.60;99.90
41481;DHT22;27217;51.220;5.308;2022-11-20T08:41:40;4.90;99.90
41481;DHT22;27217;51.220;5.308;2022-11-20T08:44:07;4.80;99.90
41481;DHT22;27217;51.220;5.308;2022-11-20T08:46:38;4.90;99.90
41481;DHT22;27217;51.220;5.308;2022-11-20T08:49:08;4.90;99.90
41481;DHT22;27217;51.220;5.308;2022-11-20T08:51:34;5.00;99.90
41481;DHT22;27217;51.220;5.308;2022-11-20T08:54:00;5.10;99.90
41481;DHT22;27217;51.220;5.308;2022-11-20T08:56:26;5.10;99.90
41481;DHT22;27217;51.220;5.308;2022-11-20T08:58:52;5.10;99.90
41481;DHT22;27217;51.220;5.308;2022-11-20T09:01:19;5.30;99.90
41481;DHT22;27217;51.220;5.308;2022-11-20T09:03:45;5.30;99.90
41481;DHT22;27217;51.220;5.308;2022-11-20T09:06:12;5.20;99.90
41481;DHT22;27217;51.220;5.308;2022-11-20T09:08:38;5.20;99.90
41481;DHT22;27217;51.220;5.308;2022-11-20T09:11:04;5.20;99.90
41481;DHT22;27217;51.220;5.308;2022-11-20T09:13:31;5.40;99.90
41481;DHT22;27217;51.220;5.308;2022-11-20T09:16:00;5.30;99.90
41481;DHT22;27217;51.220;5.308;2022-11-20T09:18:27;5.40;99.90
41481;DHT22;27217;51.220;5.308;2022-11-20T09:21:01;5.50;99.90
41481;DHT22;27217;51.220;5.308;2022-11-20T09:23:30;5.50;99.90
41481;DHT22;27217;51.220;5.308;2022-11-20T09:25:57;5.50;99.90
41481;DHT22;27217;51.220;5.308;2022-11-20T09:28:25;5.60;99.90
41481;DHT22;27217;51.220;5.308;2022-11-20T09:30:51;5.70;99.90
41481;DHT22;27217;51.220;5.308;2022-11-20T09:33:18;5.90;99.90
41481;DHT22;27217;51.220;5.308;2022-11-20T09:35:44;5.90;99.90
41481;DHT22;27217;51.220;5.308;2022-11-20T09:38:10;5.80;99.90
41481;DHT22;27217;51.220;5.308;2022-11-20T09:40:40;5.80;99.90
41481;DHT22;27217;51.220;5.308;2022-11-20T09:43:14;5.90;99.90
41481;DHT22;27217;51.220;5.308;2022-11-20T09:54:21;5.90;99.90
41481;DHT22;27217;51.220;5.308;2022-11-20T09:56:55;6.10;99.90
41481;DHT22;27217;51.220;5.308;2022-11-20T10:04:56;6.10;99.90
41481;DHT22;27217;51.220;5.308;2022-11-20T10:07:48;6.30;99.90
41481;DHT22;27217;51.220;5.308;2022-11-20T10:10:17;6.20;99.90
41481;DHT22;27217;51.220;5.308;2022-11-20T10:12:54;6.40;99.90
41481;DHT22;27217;51.220;5.308;2022-11-20T10:15:33;6.60;99.90
41481;DHT22;27217;51.220;5.308;2022-11-20T10:26:02;6.90;99.90
41481;DHT22;27217;51.220;5.308;2022-11-20T10:29:04;6.90;99.90
41481;DHT22;27217;51.220;5.308;2022-11-20T10:31:38;6.70;99.90
41481;DHT22;27217;51.220;5.308;2022-11-20T10:34:23;6.60;99.90
41481;DHT22;27217;51.220;5.308;2022-11-20T10:42:49;6.90;99.90
41481;DHT22;27217;51.220;5.308;2022-11-20T10:45:28;7.10;99.90
41481;DHT22;27217;51.220;5.308;2022-11-20T10:50:30;7.00;99.90
41481;DHT22;27217;51.220;5.308;2022-11-20T10:53:12;6.90;99.90
41481;DHT22;27217;51.220;5.308;2022-11-20T10:56:01;6.90;99.90
41481;DHT22;27217;51.220;5.308;2022-11-20T10:58:46;7.10;99.90
41481;DHT22;27217;51.220;5.308;2022-11-20T11:01:19;7.00;99.90
41481;DHT22;27217;51.220;5.308;2022-11-20T11:03:49;6.90;99.90
41481;DHT22;27217;51.220;5.308;2022-11-20T11:06:37;7.10;99.90
41481;DHT22;27217;51.220;5.308;2022-11-20T11:09:16;6.80;99.90
41481;DHT22;27217;51.220;5.308;2022-11-20T11:11:42;6.90;99.90
41481;DHT22;27217;51.220;5.308;2022-11-20T11:14:13;6.90;99.90
41481;DHT22;27217;51.220;5.308;2022-11-20T11:16:51;7.20;99.90
41481;DHT22;27217;51.220;5.308;2022-11-20T11:19:17;7.20;99.90
41481;DHT22;27217;51.220;5.308;2022-11-20T11:22:06;7.00;99.90
41481;DHT22;27217;51.220;5.308;2022-11-20T11:24:36;6.90;99.90
41481;DHT22;27217;51.220;5.308;2022-11-20T11:27:04;6.90;99.90
41481;DHT22;27217;51.220;5.308;2022-11-20T11:29:36;7.10;99.90
41481;DHT22;27217;51.220;5.308;2022-11-20T11:32:06;7.00;99.90
41481;DHT22;27217;51.220;5.308;2022-11-20T11:34:33;7.40;99.90
41481;DHT22;27217;51.220;5.308;2022-11-20T11:37:01;7.20;99.90
41481;DHT22;27217;51.220;5.308;2022-11-20T11:39:30;7.10;99.90
41481;DHT22;27217;51.220;5.308;2022-11-20T11:41:58;7.10;99.90
41481;DHT22;27217;51.220;5.308;2022-11-20T11:44:33;7.10;99.90
41481;DHT22;27217;51.220;5.308;2022-11-20T11:49:47;7.30;99.90
41481;DHT22;27217;51.220;5.308;2022-11-20T11:52:20;7.30;99.90
41481;DHT22;27217;51.220;5.308;2022-11-20T11:54:53;7.30;99.90
41481;DHT22;27217;51.220;5.308;2022-11-20T12:00:29;7.30;99.90
41481;DHT22;27217;51.220;5.308;2022-11-20T12:03:15;7.60;99.90
41481;DHT22;27217;51.220;5.308;2022-11-20T12:05:49;7.70;99.90
41481;DHT22;27217;51.220;5.308;2022-11-20T12:08:24;7.80;99.90
41481;DHT22;27217;51.220;5.308;2022-11-20T12:13:53;8.00;99.90
41481;DHT22;27217;51.220;5.308;2022-11-20T12:16:20;8.00;99.90
41481;DHT22;27217;51.220;5.308;2022-11-20T12:18:51;8.00;99.90
41481;DHT22;27217;51.220;5.308;2022-11-20T12:21:40;7.90;99.90
41481;DHT22;27217;51.220;5.308;2022-11-20T12:24:25;8.00;99.90
41481;DHT22;27217;51.220;5.308;2022-11-20T12:35:10;8.80;99.90
41481;DHT22;27217;51.220;5.308;2022-11-20T12:38:00;8.60;99.90
41481;DHT22;27217;51.220;5.308;2022-11-20T12:43:24;9.20;99.90
41481;DHT22;27217;51.220;5.308;2022-11-20T12:46:39;9.30;99.90
41481;DHT22;27217;51.220;5.308;2022-11-20T12:51:52;9.10;99.90
41481;DHT22;27217;51.220;5.308;2022-11-20T12:54:33;9.00;99.90
41481;DHT22;27217;51.220;5.308;2022-11-20T13:02:30;9.50;99.90
41481;DHT22;27217;51.220;5.308;2022-11-20T13:07:38;9.50;99.90
41481;DHT22;27217;51.220;5.308;2022-11-20T13:10:06;9.40;99.90
41481;DHT22;27217;51.220;5.308;2022-11-20T13:12:56;9.60;99.90
41481;DHT22;27217;51.220;5.308;2022-11-20T13:15:27;9.50;99.90
41481;DHT22;27217;51.220;5.308;2022-11-20T13:18:01;9.50;99.90
41481;DHT22;27217;51.220;5.308;2022-11-20T13:20:29;9.60;99.90
41481;DHT22;27217;51.220;5.308;2022-11-20T13:22:56;9.40;99.90
41481;DHT22;27217;51.220;5.308;2022-11-20T13:25:30;9.30;99.90
41481;DHT22;27217;51.220;5.308;2022-11-20T13:28:00;9.30;99.90
41481;DHT22;27217;51.220;5.308;2022-11-20T13:30:28;9.10;99.90
41481;DHT22;27217;51.220;5.308;2022-11-20T13:32:56;9.00;99.90
41481;DHT22;27217;51.220;5.308;2022-11-20T13:35:35;9.10;99.90
41481;DHT22;27217;51.220;5.308;2022-11-20T13:38:12;9.20;99.90
41481;DHT22;27217;51.220;5.308;2022-11-20T13:40:51;9.20;99.90
41481;DHT22;27217;51.220;5.308;2022-11-20T13:46:09;9.10;99.90
41481;DHT22;27217;51.220;5.308;2022-11-20T13:48:43;9.20;99.90
41481;DHT22;27217;51.220;5.308;2022-11-20T13:51:37;8.80;99.90
41481;DHT22;27217;51.220;5.308;2022-11-20T13:54:31;8.80;99.90
41481;DHT22;27217;51.220;5.308;2022-11-20T13:59:43;8.60;99.90
41481;DHT22;27217;51.220;5.308;2022-11-20T14:02:18;8.40;99.90
41481;DHT22;27217;51.220;5.308;2022-11-20T14:04:53;8.20;99.90
41481;DHT22;27217;51.220;5.308;2022-11-20T14:07:22;8.10;99.90
41481;DHT22;27217;51.220;5.308;2022-11-20T14:09:56;8.10;99.90
41481;DHT22;27217;51.220;5.308;2022-11-20T14:12:29;8.20;99.90
41481;DHT22;27217;51.220;5.308;2022-11-20T14:14:56;8.10;99.90
41481;DHT22;27217;51.220;5.308;2022-11-20T14:17:31;8.00;99.90
41481;DHT22;27217;51.220;5.308;2022-11-20T14:20:05;8.00;99.90
41481;DHT22;27217;51.220;5.308;2022-11-20T14:22:31;8.10;99.90
41481;DHT22;27217;51.220;5.308;2022-11-20T14:27:28;8.10;99.90
41481;DHT22;27217;51.220;5.308;2022-11-20T14:29:54;8.10;99.90
41481;DHT22;27217;51.220;5.308;2022-11-20T14:32:22;8.00;99.90
41481;DHT22;27217;51.220;5.308;2022-11-20T14:34:51;8.00;99.90
41481;DHT22;27217;51.220;5.308;2022-11-20T14:37:21;8.10;99.90
41481;DHT22;27217;51.220;5.308;2022-11-20T14:39:54;8.20;99.90
41481;DHT22;27217;51.220;5.308;2022-11-20T14:42:23;8.10;99.90
41481;DHT22;27217;51.220;5.308;2022-11-20T14:44:51;8.00;99.90
41481;DHT22;27217;51.220;5.308;2022-11-20T14:47:29;7.90;99.90
41481;DHT22;27217;51.220;5.308;2022-11-20T14:49:57;8.00;99.90
41481;DHT22;27217;51.220;5.308;2022-11-20T14:52:26;7.80;99.90
41481;DHT22;27217;51.220;5.308;2022-11-20T14:54:54;7.80;99.90
41481;DHT22;27217;51.220;5.308;2022-11-20T14:57:28;7.80;99.90
41481;DHT22;27217;51.220;5.308;2022-11-20T15:00:24;7.80;99.90
41481;DHT22;27217;51.220;5.308;2022-11-20T15:02:51;7.80;99.90
41481;DHT22;27217;51.220;5.308;2022-11-20T15:05:20;7.80;99.90
41481;DHT22;27217;51.220;5.308;2022-11-20T15:08:07;7.80;99.90
41481;DHT22;27217;51.220;5.308;2022-11-20T15:10:33;8.00;99.90
41481;DHT22;27217;51.220;5.308;2022-11-20T15:13:03;7.90;99.90
41481;DHT22;27217;51.220;5.308;2022-11-20T15:15:45;7.80;99.90
41481;DHT22;27217;51.220;5.308;2022-11-20T15:18:17;7.70;99.90
41481;DHT22;27217;51.220;5.308;2022-11-20T15:20:44;7.70;99.90
41481;DHT22;27217;51.220;5.308;2022-11-20T15:23:13;7.70;99.90
41481;DHT22;27217;51.220;5.308;2022-11-20T15:25:40;8.00;99.90
41481;DHT22;27217;51.220;5.308;2022-11-20T15:31:01;7.60;99.90
41481;DHT22;27217;51.220;5.308;2022-11-20T15:33:28;7.60;99.90
41481;DHT22;27217;51.220;5.308;2022-11-20T15:35:54;7.70;99.90
41481;DHT22;27217;51.220;5.308;2022-11-20T15:38:21;7.60;99.90
41481;DHT22;27217;51.220;5.308;2022-11-20T15:40:46;7.60;99.90
41481;DHT22;27217;51.220;5.308;2022-11-20T15:43:12;7.50;99.90
41481;DHT22;27217;51.220;5.308;2022-11-20T15:48:19;7.50;99.90
41481;DHT22;27217;51.220;5.308;2022-11-20T15:53:16;7.50;99.90
41481;DHT22;27217;51.220;5.308;2022-11-20T15:55:42;7.40;99.90
41481;DHT22;27217;51.220;5.308;2022-11-20T15:58:08;7.50;99.90
41481;DHT22;27217;51.220;5.308;2022-11-20T16:00:34;7.50;99.90
41481;DHT22;27217;51.220;5.308;2022-11-20T16:03:00;7.40;99.90
41481;DHT22;27217;51.220;5.308;2022-11-20T16:05:29;7.60;99.90
41481;DHT22;27217;51.220;5.308;2022-11-20T16:07:56;7.50;99.90
41481;DHT22;27217;51.220;5.308;2022-11-20T16:10:23;7.40;99.90
41481;DHT22;27217;51.220;5.308;2022-11-20T16:12:49;7.30;99.90
41481;DHT22;27217;51.220;5.308;2022-11-20T16:15:34;7.50;99.90
41481;DHT22;27217;51.220;5.308;2022-11-20T16:18:14;7.50;99.90
41481;DHT22;27217;51.220;5.308;2022-11-20T16:20:40;7.60;99.90
41481;DHT22;27217;51.220;5.308;2022-11-20T16:23:07;7.70;99.90
41481;DHT22;27217;51.220;5.308;2022-11-20T16:25:33;7.60;99.90
41481;DHT22;27217;51.220;5.308;2022-11-20T16:27:59;7.80;99.90
41481;DHT22;27217;51.220;5.308;2022-11-20T16:30:25;7.70;99.90
41481;DHT22;27217;51.220;5.308;2022-11-20T16:32:51;8.00;99.90
41481;DHT22;27217;51.220;5.308;2022-11-20T16:35:17;8.10;99.90
41481;DHT22;27217;51.220;5.308;2022-11-20T16:37:43;8.00;99.90
41481;DHT22;27217;51.220;5.308;2022-11-20T16:40:10;8.00;99.90
41481;DHT22;27217;51.220;5.308;2022-11-20T16:42:37;8.10;99.90
41481;DHT22;27217;51.220;5.308;2022-11-20T16:45:03;8.00;99.90
41481;DHT22;27217;51.220;5.308;2022-11-20T16:47:36;7.70;99.90
41481;DHT22;27217;51.220;5.308;2022-11-20T16:50:04;8.00;99.90
41481;DHT22;27217;51.220;5.308;2022-11-20T16:52:30;7.80;99.90
41481;DHT22;27217;51.220;5.308;2022-11-20T16:54:57;8.10;99.90
41481;DHT22;27217;51.220;5.308;2022-11-20T16:57:24;8.10;99.90
41481;DHT22;27217;51.220;5.308;2022-11-20T16:59:49;8.10;99.90
41481;DHT22;27217;51.220;5.308;2022-11-20T17:02:16;8.00;99.90
41481;DHT22;27217;51.220;5.308;2022-11-20T17:04:41;8.10;99.90
41481;DHT22;27217;51.220;5.308;2022-11-20T17:07:07;8.10;99.90
41481;DHT22;27217;51.220;5.308;2022-11-20T17:09:33;8.20;99.90
41481;DHT22;27217;51.220;5.308;2022-11-20T17:12:00;8.10;99.90
41481;DHT22;27217;51.220;5.308;2022-11-20T17:14:26;8.10;99.90
41481;DHT22;27217;51.220;5.308;2022-11-20T17:16:52;8.10;99.90
41481;DHT22;27217;51.220;5.308;2022-11-20T17:19:18;8.10;99.90
41481;DHT22;27217;51.220;5.308;2022-11-20T17:21:45;8.00;99.90
41481;DHT22;27217;51.220;5.308;2022-11-20T17:24:12;8.00;99.90